Time;durP1;ratioP1;P1;durP2;ratioP2;P2;SDS_P1;SDS_P2;PMS_P1;PMS_P2;Temp;Humidity;BMP_temperature;BMP_pressure;BME280_temperature;BME280_humidity;BME280_pressure;Samples;Min_cycle;Max_cycle;Signal;HPM_P1;HPM_P2
2021/06/29 00:01:53;;;;;;;30.95;29.17;;;;;;;17.49;68.48;93726.16;5090617;28;20038;-58
2021/06/29 00:04:18;;;;;;;31.08;29.13;;;;;;;17.49;68.73;93734.53;5090624;28;20504;-59
2021/06/29 00:06:43;;;;;;;31.30;29.58;;;;;;;17.43;68.98;93732.03;5106168;28;20429;-59
2021/06/29 00:09:09;;;;;;;30.52;28.27;;;;;;;17.41;68.64;93725.59;5110873;28;20281;-59
2021/06/29 00:11:34;;;;;;;31.25;29.20;;;;;;;17.40;68.23;93724.09;5110546;28;20027;-59
2021/06/29 00:14:00;;;;;;;29.77;27.83;;;;;;;17.39;68.53;93725.41;5109163;28;20034;-59
2021/06/29 00:16:25;;;;;;;30.35;28.65;;;;;;;17.44;68.66;93724.41;5110571;28;20035;-59
2021/06/29 00:18:51;;;;;;;29.83;27.85;;;;;;;17.33;69.14;93716.59;5110430;28;20031;-59
2021/06/29 00:21:16;;;;;;;29.40;27.50;;;;;;;17.36;68.69;93723.81;5110582;28;20024;-59
2021/06/29 00:23:42;;;;;;;30.17;28.38;;;;;;;17.34;68.92;93718.09;5100324;28;20393;-57
2021/06/29 00:26:09;;;;;;;29.45;27.48;;;;;;;17.26;68.96;93721.00;5089854;28;20031;-59
2021/06/29 00:28:36;;;;;;;27.05;25.35;;;;;;;17.25;69.00;93707.66;5089660;28;20020;-59
2021/06/29 00:31:01;;;;;;;26.15;24.65;;;;;;;17.25;69.33;93718.81;5090175;28;20054;-58
2021/06/29 00:33:27;;;;;;;28.75;27.10;;;;;;;17.22;69.18;93706.03;5090074;28;20481;-59
2021/06/29 00:35:52;;;;;;;26.80;25.25;;;;;;;17.24;69.85;93708.97;5089789;28;20177;-59
2021/06/29 00:38:18;;;;;;;25.17;23.27;;;;;;;17.20;70.01;93708.66;5089975;28;20020;-59
2021/06/29 00:40:43;;;;;;;26.45;24.95;;;;;;;17.06;70.36;93705.59;5090005;28;20034;-58
2021/06/29 00:43:08;;;;;;;25.92;24.50;;;;;;;17.08;69.26;93710.56;5090085;28;20019;-59
2021/06/29 00:45:34;;;;;;;27.35;25.58;;;;;;;17.02;69.45;93710.84;5090078;28;20027;-59
2021/06/29 00:47:59;;;;;;;26.02;24.58;;;;;;;17.17;68.97;93709.84;5089761;28;20393;-58
2021/06/29 00:50:25;;;;;;;27.83;25.92;;;;;;;17.14;69.13;93714.53;5089799;28;20077;-58
2021/06/29 00:52:50;;;;;;;27.35;25.65;;;;;;;17.13;69.08;93704.69;5089756;28;20036;-59
2021/06/29 00:55:16;;;;;;;25.02;23.58;;;;;;;17.10;68.68;93707.94;5088841;28;20038;-58
2021/06/29 00:57:42;;;;;;;26.10;24.70;;;;;;;17.04;68.21;93713.81;5089982;28;20481;-59
2021/06/29 01:00:09;;;;;;;24.80;23.38;;;;;;;17.00;68.35;93702.31;5089676;28;20485;-59
2021/06/29 01:02:35;;;;;;;24.67;23.38;;;;;;;16.96;68.37;93706.88;5091778;28;20110;-59
2021/06/29 01:05:06;;;;;;;24.58;22.95;;;;;;;16.92;68.80;93703.78;5100047;28;20161;-59
2021/06/29 01:07:31;;;;;;;23.92;22.52;;;;;;;16.91;69.58;93703.06;5100169;28;20121;-58
2021/06/29 01:09:57;;;;;;;25.00;23.40;;;;;;;16.88;69.74;93697.91;5096165;28;20467;-57
2021/06/29 01:12:22;;;;;;;24.20;22.85;;;;;;;16.87;69.86;93710.41;5098378;28;20036;-56
2021/06/29 01:14:48;;;;;;;29.00;26.63;;;;;;;16.87;69.83;93694.38;5095114;28;20031;-56
2021/06/29 01:17:13;;;;;;;31.17;28.27;;;;;;;16.86;68.81;93698.50;5094856;28;20020;-56
2021/06/29 01:22:10;;;;;;;34.35;31.00;;;;;;;16.79;70.50;93693.03;5100783;28;20743;-59
2021/06/29 01:24:36;;;;;;;38.50;34.10;;;;;;;16.75;70.34;93706.69;5105800;28;20031;-59
2021/06/29 01:32:24;;;;;;;27.65;25.38;;;;;;;16.69;69.79;93693.03;5089657;28;20117;-60
2021/06/29 01:34:49;;;;;;;29.65;27.35;;;;;;;16.67;69.83;93687.31;5109775;28;20032;-59
2021/06/29 01:37:17;;;;;;;29.02;26.98;;;;;;;16.65;69.84;93696.22;5109738;28;20534;-59
2021/06/29 01:42:39;;;;;;;28.70;26.60;;;;;;;16.70;69.73;93697.28;5113839;28;20555;-59
2021/06/29 01:45:05;;;;;;;28.67;26.58;;;;;;;16.59;70.19;93697.81;5113725;28;20032;-59
2021/06/29 01:47:54;;;;;;;27.58;25.23;;;;;;;16.57;70.88;93692.84;5113852;28;20039;-59
2021/06/29 01:50:18;;;;;;;26.35;24.40;;;;;;;16.53;70.32;93700.91;5113064;28;20039;-59
2021/06/29 01:52:44;;;;;;;27.27;25.15;;;;;;;16.56;70.39;93705.31;5112786;28;20035;-59
2021/06/29 01:55:10;;;;;;;26.60;24.65;;;;;;;16.54;70.41;93704.44;5104073;28;20401;-59
2021/06/29 01:57:38;;;;;;;27.08;25.10;;;;;;;16.54;70.85;93707.22;5103246;28;20381;-59
2021/06/29 02:00:09;;;;;;;26.58;24.80;;;;;;;16.54;70.26;93702.38;5101997;28;20142;-59
2021/06/29 02:02:35;;;;;;;25.45;23.77;;;;;;;16.55;69.48;93703.09;5102595;28;20111;-59
2021/06/29 02:05:00;;;;;;;24.88;23.10;;;;;;;16.52;69.95;93698.72;5103393;28;20096;-59
2021/06/29 02:07:26;;;;;;;27.58;25.52;;;;;;;16.46;69.83;93698.94;5103980;27;20055;-59
2021/06/29 02:09:51;;;;;;;25.85;24.13;;;;;;;16.34;69.74;93698.03;5101997;28;20532;-58
2021/06/29 02:12:17;;;;;;;27.27;25.55;;;;;;;16.38;69.94;93703.16;5102567;28;20126;-58
2021/06/29 02:14:43;;;;;;;26.10;24.40;;;;;;;16.39;69.72;93697.03;5101808;28;20411;-60
2021/06/29 02:17:09;;;;;;;24.80;23.10;;;;;;;16.25;70.37;93684.03;5103076;28;20416;-59
2021/06/29 02:19:34;;;;;;;26.95;24.67;;;;;;;16.34;70.22;93688.91;5101877;28;20020;-59
2021/06/29 02:22:00;;;;;;;24.52;22.92;;;;;;;16.35;69.79;93693.91;5101735;28;20028;-56
2021/06/29 02:24:25;;;;;;;22.73;21.13;;;;;;;16.28;70.21;93696.81;5103939;28;20035;-60
2021/06/29 02:26:51;;;;;;;25.25;23.55;;;;;;;16.19;70.38;93686.38;5105384;28;20024;-58
2021/06/29 02:29:16;;;;;;;24.30;22.55;;;;;;;16.28;70.13;93692.00;5105109;28;20058;-59
2021/06/29 02:31:42;;;;;;;24.67;23.10;;;;;;;16.24;70.24;93702.09;5106441;28;20031;-59
2021/06/29 02:34:07;;;;;;;25.00;23.48;;;;;;;16.19;69.82;93694.72;5105517;28;20516;-56
2021/06/29 02:36:32;;;;;;;24.98;23.52;;;;;;;16.17;70.22;93691.78;5110173;28;20024;-55
2021/06/29 02:38:58;;;;;;;24.92;23.20;;;;;;;16.07;70.00;93696.59;5110718;28;20031;-54
2021/06/29 02:41:23;;;;;;;23.25;21.63;;;;;;;16.16;70.40;93693.09;5110960;28;20019;-54
2021/06/29 02:43:50;;;;;;;25.02;23.60;;;;;;;16.18;69.55;93696.03;5112517;28;20015;-54
2021/06/29 02:46:15;;;;;;;24.10;22.50;;;;;;;16.15;70.19;93689.59;5112556;28;20039;-54
2021/06/29 02:48:40;;;;;;;22.10;20.83;;;;;;;16.07;69.90;93693.81;5112668;28;20546;-57
2021/06/29 02:51:06;;;;;;;24.15;22.45;;;;;;;16.13;69.65;93692.22;5112259;28;20479;-57
2021/06/29 02:53:31;;;;;;;24.50;23.10;;;;;;;16.09;69.51;93697.44;5112683;28;20073;-58
2021/06/29 02:55:57;;;;;;;23.83;22.02;;;;;;;16.04;70.10;93701.25;5112373;27;20023;-58
2021/06/29 02:58:22;;;;;;;23.58;22.05;;;;;;;16.03;70.08;93699.03;5112200;28;20024;-58
2021/06/29 03:00:48;;;;;;;21.58;20.17;;;;;;;15.99;70.37;93693.88;5112589;28;20115;-58
2021/06/29 03:03:13;;;;;;;24.27;22.80;;;;;;;15.96;69.91;93697.81;5112056;28;20034;-58
2021/06/29 03:05:39;;;;;;;23.10;21.67;;;;;;;15.88;70.16;93692.38;5111424;28;20068;-58
2021/06/29 03:08:04;;;;;;;22.83;21.30;;;;;;;15.94;70.26;93695.63;5111715;28;20104;-58
2021/06/29 03:10:30;;;;;;;22.92;21.50;;;;;;;15.91;70.51;93701.63;5112210;28;20039;-58
2021/06/29 03:12:55;;;;;;;23.13;21.70;;;;;;;15.90;70.39;93697.34;5111820;28;20503;-58
2021/06/29 03:15:21;;;;;;;23.45;21.73;;;;;;;15.91;70.05;93696.06;5111794;28;20080;-58
2021/06/29 03:17:49;;;;;;;23.30;21.80;;;;;;;15.81;71.04;93698.03;5110754;28;20034;-60
2021/06/29 03:20:15;;;;;;;23.03;21.63;;;;;;;15.79;71.20;93700.66;5111837;27;20024;-58
2021/06/29 03:22:40;;;;;;;22.90;20.02;;;;;;;15.86;70.81;93694.25;5111860;27;20073;-60
2021/06/29 03:25:07;;;;;;;31.90;28.60;;;;;;;15.89;70.29;93698.69;5091230;28;20523;-60
2021/06/29 03:27:32;;;;;;;33.10;29.58;;;;;;;15.91;69.34;93707.19;5091480;28;20024;-59
2021/06/29 03:29:58;;;;;;;26.45;24.02;;;;;;;15.88;69.96;93697.94;5091177;28;20028;-57
2021/06/29 03:32:23;;;;;;;24.88;22.73;;;;;;;15.72;70.26;93677.19;5095974;28;20643;-59
2021/06/29 03:34:49;;;;;;;34.05;31.00;;;;;;;15.75;70.88;93701.09;5104017;28;20420;-59
2021/06/29 03:37:14;;;;;;;24.85;22.95;;;;;;;15.76;70.73;93713.72;5095325;28;20043;-59
2021/06/29 03:39:40;;;;;;;38.42;35.88;;;;;;;15.83;70.63;93703.78;5090186;28;20420;-58
2021/06/29 03:42:06;;;;;;;25.17;23.25;;;;;;;15.81;70.49;93715.47;5089308;28;20032;-59
2021/06/29 03:44:31;;;;;;;25.35;23.50;;;;;;;15.86;70.36;93719.31;5089324;28;20034;-59
2021/06/29 03:46:56;;;;;;;25.00;22.45;;;;;;;15.83;70.70;93704.50;5089284;28;20027;-59
2021/06/29 03:49:22;;;;;;;117.32;97.65;;;;;;;15.69;71.12;93711.00;5089437;28;20027;-59
2021/06/29 03:51:50;;;;;;;24.17;22.02;;;;;;;15.75;71.58;93717.78;5089268;28;20027;-59
2021/06/29 03:54:15;;;;;;;25.02;23.08;;;;;;;15.79;71.85;93718.09;5089307;28;20531;-60
2021/06/29 03:56:41;;;;;;;25.63;23.40;;;;;;;15.82;71.76;93721.78;5090462;28;20024;-58
2021/06/29 03:59:08;;;;;;;30.63;27.48;;;;;;;15.78;72.25;93713.88;5090405;28;20028;-59
2021/06/29 04:01:34;;;;;;;36.63;30.35;;;;;;;15.89;72.56;93716.13;5094162;28;20077;-58
2021/06/29 04:04:00;;;;;;;31.33;28.27;;;;;;;15.99;72.56;93721.00;5110561;28;20040;-57
2021/06/29 04:06:32;;;;;;;30.75;28.27;;;;;;;16.01;73.10;93718.38;5110081;28;20035;-58
2021/06/29 04:08:58;;;;;;;33.72;30.92;;;;;;;16.08;73.20;93721.06;5110605;28;20098;-57
2021/06/29 04:11:26;;;;;;;32.30;29.73;;;;;;;16.13;73.54;93720.06;5110704;28;20051;-57
2021/06/29 04:13:52;;;;;;;29.10;26.90;;;;;;;16.24;73.18;93721.59;5110887;28;20028;-57
2021/06/29 04:16:18;;;;;;;29.23;26.73;;;;;;;16.32;74.01;93719.41;5110795;28;20116;-59
2021/06/29 04:18:43;;;;;;;51.97;46.40;;;;;;;16.39;73.71;93724.16;5110515;28;20106;-59
2021/06/29 04:21:09;;;;;;;136.70;104.32;;;;;;;16.40;73.77;93717.97;5110804;28;20024;-58
2021/06/29 04:23:35;;;;;;;31.35;29.45;;;;;;;16.49;74.40;93719.34;5110382;28;20045;-57
2021/06/29 04:26:00;;;;;;;29.83;28.02;;;;;;;16.51;73.72;93714.69;5110772;28;20019;-60
2021/06/29 04:28:26;;;;;;;30.80;28.70;;;;;;;16.53;74.24;93702.94;5110339;28;20092;-60
2021/06/29 04:30:52;;;;;;;30.92;28.55;;;;;;;16.62;74.84;93722.50;5110661;28;20058;-61
2021/06/29 04:33:18;;;;;;;31.52;29.25;;;;;;;16.64;75.00;93710.75;5110675;28;20027;-58
2021/06/29 04:35:44;;;;;;;33.53;31.33;;;;;;;16.83;74.99;93713.59;5110618;28;20401;-57
2021/06/29 04:38:10;;;;;;;31.10;29.10;;;;;;;16.92;75.60;93717.72;5110204;28;20024;-56
2021/06/29 04:40:36;;;;;;;33.88;31.90;;;;;;;16.95;74.89;93708.94;5109692;28;20019;-58
2021/06/29 04:43:01;;;;;;;29.52;27.63;;;;;;;17.05;75.56;93711.72;5110145;28;20031;-58
2021/06/29 04:45:27;;;;;;;30.88;29.15;;;;;;;17.13;75.79;93712.34;5110317;28;20019;-57
2021/06/29 04:47:54;;;;;;;32.22;30.27;;;;;;;17.21;75.68;93710.16;5110361;28;20023;-54
2021/06/29 04:50:20;;;;;;;35.05;32.85;;;;;;;17.31;75.88;93700.47;5109996;28;20035;-56
2021/06/29 04:52:47;;;;;;;39.67;36.97;;;;;;;17.38;75.38;93705.16;5109861;28;20027;-56
2021/06/29 04:55:13;;;;;;;39.47;37.17;;;;;;;17.41;75.51;93703.25;5110219;28;20027;-56
2021/06/29 04:57:39;;;;;;;38.47;36.08;;;;;;;17.54;76.47;93710.47;5109710;28;20523;-58
2021/06/29 05:00:07;;;;;;;40.30;37.65;;;;;;;17.44;76.09;93676.94;5109511;28;20047;-59
2021/06/29 05:02:33;;;;;;;47.45;44.28;;;;;;;17.63;75.16;93704.88;5110144;28;20023;-59
2021/06/29 05:04:59;;;;;;;41.75;38.50;;;;;;;17.65;74.58;93687.56;5109447;28;20108;-59
2021/06/29 05:07:24;;;;;;;45.63;42.70;;;;;;;17.72;75.05;93698.56;5109656;28;20048;-60
2021/06/29 05:09:50;;;;;;;49.60;46.00;;;;;;;17.74;75.51;93689.56;5110119;28;20073;-60
2021/06/29 05:12:15;;;;;;;47.38;43.72;;;;;;;17.81;75.44;93688.69;5109737;28;20027;-59
2021/06/29 05:14:41;;;;;;;53.15;47.55;;;;;;;17.99;75.63;93701.16;5113805;28;20023;-60
2021/06/29 05:17:06;;;;;;;58.22;51.47;;;;;;;18.03;75.49;93699.38;5114445;27;20496;-59
2021/06/29 05:19:32;;;;;;;58.88;54.38;;;;;;;18.15;75.44;93697.44;5114476;28;20024;-58
2021/06/29 05:21:57;;;;;;;54.67;51.10;;;;;;;18.26;75.24;93698.88;5113734;27;20020;-58
2021/06/29 05:24:23;;;;;;;63.22;59.20;;;;;;;18.41;75.83;93695.00;5113750;28;20037;-60
2021/06/29 05:26:50;;;;;;;62.78;58.97;;;;;;;18.53;76.24;93698.66;5114043;28;20012;-59
2021/06/29 05:29:15;;;;;;;61.47;58.08;;;;;;;18.60;76.66;93690.06;5114023;27;20068;-59
2021/06/29 05:31:41;;;;;;;63.17;59.53;;;;;;;18.66;77.25;93689.75;5113935;28;20031;-58
2021/06/29 05:34:06;;;;;;;65.85;62.30;;;;;;;18.80;77.42;93688.66;5112209;28;20028;-60
2021/06/29 05:36:32;;;;;;;67.18;63.78;;;;;;;18.89;76.88;93696.25;5113483;28;20094;-60
2021/06/29 05:38:57;;;;;;;69.68;66.13;;;;;;;18.95;76.36;93695.22;5113273;28;20024;-56
2021/06/29 05:41:23;;;;;;;59.95;56.85;;;;;;;19.11;75.65;93699.06;5113608;28;20023;-59
2021/06/29 05:43:49;;;;;;;61.47;58.13;;;;;;;19.17;75.83;93686.22;5113502;28;20024;-54
2021/06/29 05:46:14;;;;;;;61.75;58.50;;;;;;;19.31;74.94;93692.00;5113192;28;20032;-56
2021/06/29 05:48:40;;;;;;;68.90;65.32;;;;;;;19.32;74.86;93687.88;5113367;28;20043;-57
2021/06/29 05:51:05;;;;;;;70.43;66.57;;;;;;;19.47;75.90;93691.03;5112824;28;20023;-57
2021/06/29 05:53:31;;;;;;;73.32;69.68;;;;;;;19.51;75.52;93698.97;5113375;28;20058;-58
2021/06/29 05:55:57;;;;;;;75.97;72.05;;;;;;;19.62;74.81;93696.19;5094472;28;20497;-58
2021/06/29 05:58:23;;;;;;;81.22;77.35;;;;;;;19.70;74.70;93698.06;5096672;28;20107;-58
2021/06/29 06:00:48;;;;;;;85.55;81.38;;;;;;;19.77;74.84;93699.91;5108029;28;20510;-58
2021/06/29 06:03:15;;;;;;;78.00;73.82;;;;;;;19.78;74.51;93692.97;5092442;28;20116;-58
2021/06/29 06:05:41;;;;;;;87.28;82.95;;;;;;;19.95;74.49;93690.59;5097899;28;20024;-57
2021/06/29 06:08:06;;;;;;;80.15;76.10;;;;;;;20.02;74.70;93689.66;5111024;28;20539;-57
2021/06/29 06:10:32;;;;;;;78.72;74.85;;;;;;;20.15;74.33;93697.47;5111538;28;20671;-57
2021/06/29 06:12:57;;;;;;;63.13;59.78;;;;;;;20.23;73.49;93691.66;5111489;28;20031;-58
2021/06/29 06:15:23;;;;;;;73.00;69.15;;;;;;;20.35;73.73;93692.41;5111338;28;20027;-58
2021/06/29 06:17:49;;;;;;;96.05;91.40;;;;;;;20.48;74.54;93694.63;5111404;28;20027;-58
2021/06/29 06:20:14;;;;;;;55.28;52.38;;;;;;;20.55;73.08;93688.06;5111402;28;20587;-58
2021/06/29 06:22:40;;;;;;;54.97;51.95;;;;;;;20.66;72.67;93681.69;5111116;28;20035;-57
2021/06/29 06:25:07;;;;;;;52.72;49.97;;;;;;;20.76;72.24;93690.00;5090121;28;20556;-54
2021/06/29 06:27:32;;;;;;;48.80;46.20;;;;;;;20.86;71.87;93680.09;5091264;28;20046;-57
2021/06/29 06:29:58;;;;;;;42.05;39.47;;;;;;;20.96;71.16;93677.19;5091499;28;20109;-58
2021/06/29 06:32:24;;;;;;;35.20;33.05;;;;;;;21.12;70.28;93672.53;5091118;28;20031;-57
2021/06/29 06:34:49;;;;;;;36.63;34.15;;;;;;;21.25;70.24;93676.78;5091002;28;20540;-57
2021/06/29 06:37:14;;;;;;;31.63;29.83;;;;;;;21.33;70.38;93677.97;5091174;28;20016;-53
2021/06/29 06:39:40;;;;;;;20.88;19.27;;;;;;;21.74;66.85;93673.31;5090819;28;20036;-57
2021/06/29 06:42:06;;;;;;;21.92;20.17;;;;;;;21.87;66.88;93666.34;5090974;28;20800;-55
2021/06/29 06:44:31;;;;;;;24.40;22.42;;;;;;;21.86;67.70;93667.66;5090755;28;20027;-54
2021/06/29 06:46:57;;;;;;;22.90;20.02;;;;;;;21.95;67.49;93678.03;5090887;28;20024;-51
2021/06/29 06:49:22;;;;;;;20.50;19.10;;;;;;;22.08;68.11;93656.94;5091161;28;20108;-54
2021/06/29 06:51:48;;;;;;;15.57;14.38;;;;;;;22.38;64.76;93676.19;5107187;28;20027;-47
2021/06/29 06:54:14;;;;;;;28.02;15.90;;;;;;;22.54;63.21;93668.59;5111311;28;20472;-47
2021/06/29 06:56:39;;;;;;;16.10;14.80;;;;;;;22.65;63.84;93672.00;5111212;28;20026;-46
2021/06/29 06:59:05;;;;;;;14.70;13.50;;;;;;;22.76;64.78;93673.97;5111479;28;20024;-46
2021/06/29 07:01:30;;;;;;;14.52;13.35;;;;;;;22.85;64.06;93675.88;5111563;28;20080;-47
2021/06/29 07:03:56;;;;;;;14.43;13.23;;;;;;;23.04;62.67;93678.28;5111462;28;20027;-48
2021/06/29 07:06:21;;;;;;;12.30;11.23;;;;;;;23.10;60.29;93673.69;5110237;28;20023;-47
2021/06/29 07:08:47;;;;;;;11.48;10.68;;;;;;;23.11;61.04;93682.84;5110817;27;20034;-46
2021/06/29 07:11:13;;;;;;;10.40;9.38;;;;;;;23.07;60.32;93666.47;5110431;28;20062;-47
2021/06/29 07:13:38;;;;;;;10.48;9.52;;;;;;;23.24;62.42;93674.38;5110170;27;20064;-48
2021/06/29 07:16:04;;;;;;;11.07;10.00;;;;;;;23.39;62.57;93669.50;5110097;28;20019;-48
2021/06/29 07:18:30;;;;;;;12.27;9.98;;;;;;;23.43;62.90;93672.53;5110187;28;20024;-47
2021/06/29 07:20:55;;;;;;;19.45;10.98;;;;;;;23.44;62.90;93669.06;5110271;27;20476;-48
2021/06/29 07:23:21;;;;;;;11.70;10.70;;;;;;;23.47;62.17;93665.00;5109501;28;20027;-47
2021/06/29 07:25:47;;;;;;;10.90;9.25;;;;;;;23.67;61.08;93665.97;5109457;28;20537;-48
2021/06/29 07:28:13;;;;;;;14.95;10.32;;;;;;;23.82;61.43;93668.13;5110423;28;20028;-49
2021/06/29 07:30:39;;;;;;;12.50;9.10;;;;;;;24.25;58.57;93664.53;5109323;28;20030;-47
2021/06/29 07:33:06;;;;;;;10.68;9.50;;;;;;;24.34;58.98;93657.91;5110382;28;20080;-49
2021/06/29 07:35:31;;;;;;;12.45;9.32;;;;;;;24.58;60.20;93673.16;5110243;28;20053;-48
2021/06/29 07:37:59;;;;;;;8.82;8.05;;;;;;;24.83;56.14;93672.91;5109416;28;20023;-51
2021/06/29 07:40:25;;;;;;;11.60;9.43;;;;;;;25.14;57.61;93670.03;5110328;28;20058;-49
2021/06/29 07:42:51;;;;;;;8.50;7.20;;;;;;;25.34;55.52;93661.69;5109770;28;20039;-49
2021/06/29 07:45:17;;;;;;;7.38;6.68;;;;;;;25.58;52.94;93669.13;5110260;28;20085;-52
2021/06/29 07:47:42;;;;;;;8.38;7.63;;;;;;;25.73;53.20;93661.25;5108087;28;20058;-50
2021/06/29 07:50:09;;;;;;;7.53;6.88;;;;;;;25.99;51.24;93667.97;5089793;28;20024;-51
2021/06/29 07:52:35;;;;;;;8.40;7.43;;;;;;;26.29;50.67;93667.09;5089870;28;20040;-51
2021/06/29 07:55:01;;;;;;;8.70;7.90;;;;;;;26.63;50.84;93676.19;5089426;28;20522;-50
2021/06/29 07:57:27;;;;;;;7.85;7.10;;;;;;;27.11;51.88;93665.94;5089431;28;20032;-54
2021/06/29 07:59:52;;;;;;;6.95;6.25;;;;;;;27.40;48.45;93659.91;5087967;28;20024;-56
2021/06/29 08:02:18;;;;;;;6.90;6.13;;;;;;;27.70;48.39;93668.72;5089332;28;20030;-55
2021/06/29 08:04:44;;;;;;;7.75;6.97;;;;;;;28.03;46.93;93670.56;5095158;28;20027;-54
2021/06/29 08:07:09;;;;;;;8.55;6.68;;;;;;;28.22;47.25;93664.09;5109087;28;20060;-51
2021/06/29 08:09:35;;;;;;;8.00;6.47;;;;;;;28.20;46.13;93664.00;5109813;28;20039;-53
2021/06/29 08:12:01;;;;;;;7.55;6.20;;;;;;;28.50;46.24;93664.97;5109835;28;20042;-49
2021/06/29 08:14:26;;;;;;;6.30;5.72;;;;;;;28.61;43.58;93668.88;5109997;28;20564;-50
2021/06/29 08:16:52;;;;;;;8.32;5.90;;;;;;;28.69;44.33;93666.28;5109864;28;20028;-55
2021/06/29 08:19:17;;;;;;;8.20;6.07;;;;;;;29.11;44.93;93670.34;5109390;28;20036;-48
2021/06/29 08:21:43;;;;;;;8.05;5.80;;;;;;;29.92;44.10;93661.94;5109583;28;20031;-51
2021/06/29 08:24:09;;;;;;;6.20;5.57;;;;;;;30.21;39.82;93658.41;5098018;28;20048;-47
2021/06/29 08:26:35;;;;;;;6.72;5.97;;;;;;;30.15;41.13;93651.81;5094047;28;20438;-53
2021/06/29 08:29:00;;;;;;;7.20;6.47;;;;;;;30.10;41.15;93656.69;5104602;28;20072;-50
2021/06/29 08:31:26;;;;;;;7.18;6.07;;;;;;;30.65;39.71;93653.00;5107487;28;20027;-50
2021/06/29 08:33:54;;;;;;;9.90;6.20;;;;;;;30.49;42.19;93659.06;5105622;28;20028;-54
2021/06/29 08:36:20;;;;;;;9.35;5.90;;;;;;;30.75;39.89;93658.22;5108703;28;20027;-54
2021/06/29 08:38:47;;;;;;;7.68;5.32;;;;;;;30.44;38.12;93648.25;5108829;28;20035;-52
2021/06/29 08:41:13;;;;;;;6.82;5.43;;;;;;;30.47;39.14;93647.63;5109333;28;20459;-55
2021/06/29 08:43:40;;;;;;;8.45;5.70;;;;;;;30.84;40.31;93637.03;5109082;28;20076;-55
2021/06/29 08:46:05;;;;;;;5.80;5.25;;;;;;;30.88;36.91;93654.25;5108794;28;20031;-53
2021/06/29 08:48:31;;;;;;;4.95;4.55;;;;;;;30.82;37.03;93637.72;5108225;28;20536;-56
2021/06/29 08:50:56;;;;;;;6.53;5.35;;;;;;;31.23;37.17;93642.16;5109263;28;20087;-53
2021/06/29 08:53:23;;;;;;;6.25;5.65;;;;;;;31.53;37.39;93642.06;5108821;28;20024;-49
2021/06/29 08:55:49;;;;;;;9.07;5.75;;;;;;;31.70;38.69;93638.09;5105642;28;20812;-56
2021/06/29 08:58:20;;;;;;;5.93;5.30;;;;;;;31.95;37.22;93628.56;5107888;28;20541;-54
2021/06/29 09:00:47;;;;;;;7.93;5.88;;;;;;;32.50;37.61;93625.19;5106343;28;20085;-53
2021/06/29 09:03:12;;;;;;;8.32;5.68;;;;;;;32.82;34.74;93634.22;5107595;28;20623;-54
2021/06/29 09:05:46;;;;;;;7.63;5.05;;;;;;;32.68;35.46;93628.28;5106896;28;20106;-55
2021/06/29 09:08:14;;;;;;;6.18;5.45;;;;;;;33.05;35.70;93623.09;5107261;28;20130;-53
2021/06/29 09:10:43;;;;;;;5.68;5.18;;;;;;;33.65;35.67;93631.69;5107141;28;20052;-57
2021/06/29 09:13:11;;;;;;;6.13;5.50;;;;;;;34.09;34.32;93621.41;5108759;28;20055;-57
2021/06/29 09:15:44;;;;;;;5.87;5.27;;;;;;;34.53;33.30;93626.78;5108777;28;20054;-56
2021/06/29 09:18:21;;;;;;;6.43;5.25;;;;;;;33.89;34.30;93623.34;5109020;28;20664;-53
2021/06/29 09:20:56;;;;;;;8.05;5.80;;;;;;;33.85;34.55;93623.31;5108955;28;20059;-58
2021/06/29 09:23:31;;;;;;;5.80;5.28;;;;;;;33.84;30.06;93622.59;5103216;28;20111;-58
2021/06/29 09:26:00;;;;;;;6.38;5.10;;;;;;;33.87;31.45;93621.19;5088693;28;20036;-57
2021/06/29 09:28:31;;;;;;;6.18;5.25;;;;;;;33.68;30.40;93625.28;5088860;28;20111;-57
2021/06/29 09:31:12;;;;;;;6.22;5.60;;;;;;;33.11;30.61;93620.31;5088421;28;20668;-57
2021/06/29 09:33:44;;;;;;;5.60;5.10;;;;;;;33.33;30.77;93623.44;5088608;28;20077;-57
2021/06/29 09:36:15;;;;;;;8.10;5.95;;;;;;;33.12;29.78;93619.63;5087462;28;20115;-55
2021/06/29 09:38:42;;;;;;;7.35;5.63;;;;;;;33.42;29.53;93619.25;5088532;28;20035;-55
2021/06/29 09:41:31;;;;;;;8.00;5.80;;;;;;;33.77;31.43;93612.47;5103552;28;20080;-54
2021/06/29 09:44:10;;;;;;;9.57;5.38;;;;;;;34.08;29.67;93602.06;5089289;28;20035;-57
2021/06/29 09:46:37;;;;;;;6.15;5.25;;;;;;;34.48;30.21;93610.25;5108362;28;20032;-59
2021/06/29 09:49:15;;;;;;;6.20;5.50;;;;;;;35.40;29.90;93604.31;5108484;28;20031;-58
2021/06/29 09:51:50;;;;;;;5.78;5.18;;;;;;;35.90;28.42;93601.59;5101218;28;20110;-56
2021/06/29 09:54:16;;;;;;;5.90;4.82;;;;;;;35.23;27.06;93597.81;5097988;28;20028;-53
2021/06/29 09:56:47;;;;;;;6.18;5.53;;;;;;;34.93;28.41;93603.38;5095785;28;20035;-55
2021/06/29 09:59:19;;;;;;;6.20;5.47;;;;;;;35.19;28.71;93605.66;5097196;28;20508;-56
2021/06/29 10:01:45;;;;;;;6.47;5.13;;;;;;;34.83;26.67;93606.91;5099509;28;20519;-55
2021/06/29 10:04:11;;;;;;;5.90;5.40;;;;;;;35.58;25.54;93602.25;5100966;28;20428;-57
2021/06/29 10:06:38;;;;;;;5.65;5.15;;;;;;;36.11;26.56;93597.31;5102246;28;20535;-58
2021/06/29 10:09:09;;;;;;;5.90;5.38;;;;;;;36.40;25.46;93587.25;5101218;28;20123;-58
2021/06/29 10:11:40;;;;;;;5.85;5.35;;;;;;;36.26;26.75;93595.16;5100920;28;20035;-57
2021/06/29 10:14:13;;;;;;;5.78;5.28;;;;;;;36.51;24.36;93596.63;5101386;28;20024;-48
2021/06/29 10:16:43;;;;;;;7.03;6.05;;;;;;;36.10;25.03;93590.13;5102018;28;20028;-51
2021/06/29 10:19:34;;;;;;;7.47;5.03;;;;;;;36.52;25.45;93588.72;5101062;28;20016;-57
2021/06/29 10:22:02;;;;;;;10.00;6.28;;;;;;;37.36;27.36;93579.16;5100271;28;20055;-58
2021/06/29 10:24:34;;;;;;;7.03;5.55;;;;;;;37.77;25.94;93574.59;5098544;28;20023;-58
2021/06/29 10:27:02;;;;;;;7.80;5.53;;;;;;;37.21;24.62;93587.81;5101810;28;20535;-57
2021/06/29 10:29:29;;;;;;;6.18;5.60;;;;;;;35.96;24.95;93589.41;5101043;28;20028;-56
2021/06/29 10:31:58;;;;;;;6.97;5.53;;;;;;;36.24;25.75;93575.75;5099779;28;20054;-57
2021/06/29 10:34:26;;;;;;;6.55;5.82;;;;;;;35.59;26.38;93574.22;5102507;28;20020;-56
2021/06/29 10:36:54;;;;;;;5.90;5.40;;;;;;;35.50;28.81;93570.63;5100631;28;20023;-56
2021/06/29 10:39:27;;;;;;;6.50;5.90;;;;;;;35.12;28.69;93575.50;5100308;28;20092;-49
2021/06/29 10:41:54;;;;;;;7.53;6.18;;;;;;;35.25;30.24;93571.25;5092508;28;20185;-55
2021/06/29 10:44:21;;;;;;;6.03;5.40;;;;;;;35.45;27.33;93572.03;5097396;28;20041;-55
2021/06/29 10:46:51;;;;;;;6.65;6.00;;;;;;;35.30;27.11;93566.97;5098023;28;20036;-53
2021/06/29 10:49:27;;;;;;;9.40;5.75;;;;;;;35.41;27.97;93559.81;5101784;28;20098;-58
2021/06/29 10:51:52;;;;;;;6.68;6.10;;;;;;;35.56;27.33;93550.53;5101056;28;20031;-51
2021/06/29 10:54:54;;;;;;;6.45;5.63;;;;;;;36.12;27.12;93552.03;5099377;28;20108;-50
2021/06/29 10:57:23;;;;;;;6.95;6.03;;;;;;;36.58;27.42;93548.41;5055457;28;20032;-57
2021/06/29 10:59:51;;;;;;;7.10;6.45;;;;;;;36.43;28.08;93544.84;5090746;28;20097;-51
2021/06/29 11:02:36;;;;;;;6.65;5.95;;;;;;;36.14;25.98;93546.28;5098454;28;20035;-56
2021/06/29 11:05:07;;;;;;;6.55;5.93;;;;;;;34.79;28.67;93525.84;5099456;28;20027;-50
2021/06/29 11:07:32;;;;;;;6.88;6.28;;;;;;;34.73;29.36;93540.88;5098866;28;20036;-52
2021/06/29 11:10:01;;;;;;;7.97;7.07;;;;;;;35.17;30.50;93543.25;5096481;27;20031;-50
2021/06/29 11:12:32;;;;;;;6.38;5.78;;;;;;;35.65;27.89;93540.50;5099520;28;20032;-55
2021/06/29 11:15:01;;;;;;;7.65;6.05;;;;;;;35.00;26.54;93530.25;5098814;28;20019;-50
2021/06/29 11:17:48;;;;;;;6.82;6.13;;;;;;;34.67;30.99;93529.38;5096511;28;20048;-57
2021/06/29 11:20:17;;;;;;;7.00;6.30;;;;;;;34.70;27.52;93525.06;5100922;28;20413;-56
2021/06/29 11:23:01;;;;;;;7.18;6.60;;;;;;;34.64;28.57;93538.66;5100577;28;20028;-52
2021/06/29 11:25:41;;;;;;;8.10;7.30;;;;;;;34.27;28.41;93535.56;5096099;28;20133;-50
2021/06/29 11:28:08;;;;;;;7.38;6.68;;;;;;;33.84;29.25;93524.47;5095812;28;20063;-55
2021/06/29 11:30:54;;;;;;;9.07;7.30;;;;;;;33.96;29.83;93536.03;5095961;28;20106;-49
2021/06/29 11:33:29;;;;;;;8.00;6.55;;;;;;;33.29;30.37;93532.53;5096031;28;20044;-50